sensor_id;sensor_type;location;lat;lon;timestamp;P1;durP1;ratioP1;P2;durP2;ratioP2
40453;SDS011;26160;51.858;4.398;2023-09-18T00:00:51;45.20;;;33.40;;
40453;SDS011;26160;51.858;4.398;2023-09-18T00:03:19;45.35;;;33.78;;
40453;SDS011;26160;51.858;4.398;2023-09-18T00:05:46;42.50;;;32.50;;
40453;SDS011;26160;51.858;4.398;2023-09-18T00:08:16;39.13;;;28.85;;
40453;SDS011;26160;51.858;4.398;2023-09-18T00:10:46;40.40;;;29.80;;
40453;SDS011;26160;51.858;4.398;2023-09-18T00:13:13;40.55;;;31.08;;
40453;SDS011;26160;51.858;4.398;2023-09-18T00:15:40;37.50;;;30.50;;
40453;SDS011;26160;51.858;4.398;2023-09-18T00:18:06;35.60;;;29.42;;
40453;SDS011;26160;51.858;4.398;2023-09-18T00:20:33;35.22;;;28.85;;
40453;SDS011;26160;51.858;4.398;2023-09-18T00:23:00;39.40;;;28.35;;
40453;SDS011;26160;51.858;4.398;2023-09-18T00:25:26;34.67;;;27.95;;
40453;SDS011;26160;51.858;4.398;2023-09-18T00:27:52;31.02;;;26.08;;
40453;SDS011;26160;51.858;4.398;2023-09-18T00:30:19;38.40;;;29.20;;
40453;SDS011;26160;51.858;4.398;2023-09-18T00:32:45;34.33;;;28.52;;
40453;SDS011;26160;51.858;4.398;2023-09-18T00:35:12;36.25;;;27.48;;
40453;SDS011;26160;51.858;4.398;2023-09-18T00:37:38;30.05;;;25.52;;
40453;SDS011;26160;51.858;4.398;2023-09-18T00:40:06;30.42;;;26.17;;
40453;SDS011;26160;51.858;4.398;2023-09-18T00:42:32;34.70;;;28.08;;
40453;SDS011;26160;51.858;4.398;2023-09-18T00:44:58;34.17;;;27.77;;
40453;SDS011;26160;51.858;4.398;2023-09-18T00:47:24;31.60;;;25.30;;
40453;SDS011;26160;51.858;4.398;2023-09-18T00:49:51;32.38;;;26.92;;
40453;SDS011;26160;51.858;4.398;2023-09-18T00:52:18;32.13;;;25.50;;
40453;SDS011;26160;51.858;4.398;2023-09-18T00:54:45;29.58;;;26.33;;
40453;SDS011;26160;51.858;4.398;2023-09-18T00:57:13;27.63;;;23.02;;
40453;SDS011;26160;51.858;4.398;2023-09-18T00:59:40;29.45;;;25.58;;
40453;SDS011;26160;51.858;4.398;2023-09-18T01:02:06;35.25;;;27.92;;
40453;SDS011;26160;51.858;4.398;2023-09-18T01:04:34;28.95;;;25.40;;
40453;SDS011;26160;51.858;4.398;2023-09-18T01:07:00;28.70;;;24.60;;
40453;SDS011;26160;51.858;4.398;2023-09-18T01:09:30;37.67;;;24.13;;
40453;SDS011;26160;51.858;4.398;2023-09-18T01:12:03;26.00;;;23.10;;
40453;SDS011;26160;51.858;4.398;2023-09-18T01:17:05;29.42;;;23.92;;
40453;SDS011;26160;51.858;4.398;2023-09-18T01:22:05;26.58;;;23.10;;
40453;SDS011;26160;51.858;4.398;2023-09-18T01:24:33;28.10;;;23.00;;
40453;SDS011;26160;51.858;4.398;2023-09-18T01:27:00;24.85;;;20.95;;
40453;SDS011;26160;51.858;4.398;2023-09-18T01:29:27;26.92;;;23.73;;
40453;SDS011;26160;51.858;4.398;2023-09-18T01:31:53;22.98;;;20.52;;
40453;SDS011;26160;51.858;4.398;2023-09-18T01:34:20;30.90;;;23.23;;
40453;SDS011;26160;51.858;4.398;2023-09-18T01:36:49;27.33;;;22.40;;
40453;SDS011;26160;51.858;4.398;2023-09-18T01:39:16;24.98;;;21.27;;
40453;SDS011;26160;51.858;4.398;2023-09-18T01:41:43;25.48;;;22.77;;
40453;SDS011;26160;51.858;4.398;2023-09-18T01:44:09;23.70;;;21.10;;
40453;SDS011;26160;51.858;4.398;2023-09-18T01:46:35;24.50;;;21.10;;
40453;SDS011;26160;51.858;4.398;2023-09-18T01:49:02;23.85;;;20.10;;
40453;SDS011;26160;51.858;4.398;2023-09-18T01:51:31;25.00;;;20.40;;
40453;SDS011;26160;51.858;4.398;2023-09-18T01:53:57;24.45;;;20.42;;
40453;SDS011;26160;51.858;4.398;2023-09-18T01:56:24;23.98;;;20.42;;
40453;SDS011;26160;51.858;4.398;2023-09-18T01:58:50;27.08;;;20.05;;
40453;SDS011;26160;51.858;4.398;2023-09-18T02:01:16;25.98;;;22.13;;
40453;SDS011;26160;51.858;4.398;2023-09-18T02:03:42;23.23;;;19.85;;
40453;SDS011;26160;51.858;4.398;2023-09-18T02:06:08;23.88;;;20.38;;
40453;SDS011;26160;51.858;4.398;2023-09-18T02:08:34;25.15;;;20.85;;
40453;SDS011;26160;51.858;4.398;2023-09-18T02:11:01;21.42;;;18.83;;
40453;SDS011;26160;51.858;4.398;2023-09-18T02:13:28;19.15;;;17.10;;
40453;SDS011;26160;51.858;4.398;2023-09-18T02:15:54;23.30;;;19.58;;
40453;SDS011;26160;51.858;4.398;2023-09-18T02:18:21;26.52;;;20.20;;
40453;SDS011;26160;51.858;4.398;2023-09-18T02:20:47;20.60;;;18.40;;
40453;SDS011;26160;51.858;4.398;2023-09-18T02:23:14;21.30;;;18.92;;
40453;SDS011;26160;51.858;4.398;2023-09-18T02:25:41;22.90;;;19.52;;
40453;SDS011;26160;51.858;4.398;2023-09-18T02:28:07;23.38;;;19.10;;
40453;SDS011;26160;51.858;4.398;2023-09-18T02:30:34;24.58;;;19.92;;
40453;SDS011;26160;51.858;4.398;2023-09-18T02:33:00;21.35;;;19.15;;
40453;SDS011;26160;51.858;4.398;2023-09-18T02:35:29;19.45;;;17.27;;
40453;SDS011;26160;51.858;4.398;2023-09-18T02:37:55;19.42;;;17.27;;
40453;SDS011;26160;51.858;4.398;2023-09-18T02:40:21;23.13;;;19.73;;
40453;SDS011;26160;51.858;4.398;2023-09-18T02:42:48;21.10;;;18.85;;
40453;SDS011;26160;51.858;4.398;2023-09-18T02:45:14;21.08;;;18.50;;
40453;SDS011;26160;51.858;4.398;2023-09-18T02:47:40;20.67;;;18.58;;
40453;SDS011;26160;51.858;4.398;2023-09-18T02:50:07;20.15;;;18.02;;
40453;SDS011;26160;51.858;4.398;2023-09-18T02:52:33;19.95;;;17.83;;
40453;SDS011;26160;51.858;4.398;2023-09-18T02:55:00;26.23;;;22.05;;
40453;SDS011;26160;51.858;4.398;2023-09-18T02:57:26;25.50;;;19.35;;
40453;SDS011;26160;51.858;4.398;2023-09-18T02:59:52;20.67;;;18.02;;
40453;SDS011;26160;51.858;4.398;2023-09-18T03:02:18;19.02;;;16.80;;
40453;SDS011;26160;51.858;4.398;2023-09-18T03:04:44;18.30;;;16.40;;
40453;SDS011;26160;51.858;4.398;2023-09-18T03:07:12;21.23;;;18.50;;
40453;SDS011;26160;51.858;4.398;2023-09-18T03:09:38;23.50;;;18.42;;
40453;SDS011;26160;51.858;4.398;2023-09-18T03:12:04;20.23;;;17.48;;
40453;SDS011;26160;51.858;4.398;2023-09-18T03:14:31;26.02;;;18.85;;
40453;SDS011;26160;51.858;4.398;2023-09-18T03:16:57;30.35;;;20.52;;
40453;SDS011;26160;51.858;4.398;2023-09-18T03:19:23;27.65;;;19.95;;
40453;SDS011;26160;51.858;4.398;2023-09-18T03:21:50;22.42;;;19.52;;
40453;SDS011;26160;51.858;4.398;2023-09-18T03:24:16;28.75;;;19.50;;
40453;SDS011;26160;51.858;4.398;2023-09-18T03:26:42;26.33;;;20.52;;
40453;SDS011;26160;51.858;4.398;2023-09-18T03:29:08;28.80;;;21.75;;
40453;SDS011;26160;51.858;4.398;2023-09-18T03:31:34;25.17;;;19.30;;
40453;SDS011;26160;51.858;4.398;2023-09-18T03:34:00;28.20;;;20.83;;
40453;SDS011;26160;51.858;4.398;2023-09-18T03:36:27;39.38;;;22.05;;
40453;SDS011;26160;51.858;4.398;2023-09-18T03:38:53;28.00;;;21.13;;
40453;SDS011;26160;51.858;4.398;2023-09-18T03:41:19;34.63;;;24.25;;
40453;SDS011;26160;51.858;4.398;2023-09-18T03:43:45;26.35;;;21.15;;
40453;SDS011;26160;51.858;4.398;2023-09-18T03:46:11;38.42;;;25.48;;
40453;SDS011;26160;51.858;4.398;2023-09-18T03:48:37;32.33;;;22.42;;
40453;SDS011;26160;51.858;4.398;2023-09-18T03:51:04;23.65;;;18.48;;
40453;SDS011;26160;51.858;4.398;2023-09-18T03:53:33;31.23;;;22.92;;
40453;SDS011;26160;51.858;4.398;2023-09-18T03:56:00;20.55;;;17.23;;
40453;SDS011;26160;51.858;4.398;2023-09-18T03:58:26;23.27;;;18.52;;
40453;SDS011;26160;51.858;4.398;2023-09-18T04:00:52;29.95;;;21.42;;
40453;SDS011;26160;51.858;4.398;2023-09-18T04:03:18;19.02;;;17.02;;
40453;SDS011;26160;51.858;4.398;2023-09-18T04:05:44;24.48;;;16.90;;
40453;SDS011;26160;51.858;4.398;2023-09-18T04:08:11;22.95;;;20.08;;
40453;SDS011;26160;51.858;4.398;2023-09-18T04:10:37;30.55;;;19.10;;
40453;SDS011;26160;51.858;4.398;2023-09-18T04:13:04;23.45;;;19.17;;
40453;SDS011;26160;51.858;4.398;2023-09-18T04:15:30;23.85;;;19.10;;
40453;SDS011;26160;51.858;4.398;2023-09-18T04:17:56;19.52;;;17.25;;
40453;SDS011;26160;51.858;4.398;2023-09-18T04:20:22;18.20;;;16.33;;
40453;SDS011;26160;51.858;4.398;2023-09-18T04:23:16;19.98;;;16.10;;
40453;SDS011;26160;51.858;4.398;2023-09-18T04:25:45;27.27;;;19.08;;
40453;SDS011;26160;51.858;4.398;2023-09-18T04:28:12;27.75;;;17.48;;
40453;SDS011;26160;51.858;4.398;2023-09-18T04:30:39;26.35;;;18.30;;
40453;SDS011;26160;51.858;4.398;2023-09-18T04:33:05;16.33;;;14.30;;
40453;SDS011;26160;51.858;4.398;2023-09-18T04:35:32;25.33;;;18.55;;
40453;SDS011;26160;51.858;4.398;2023-09-18T04:37:58;21.02;;;15.15;;
40453;SDS011;26160;51.858;4.398;2023-09-18T04:40:25;17.05;;;15.35;;
40453;SDS011;26160;51.858;4.398;2023-09-18T04:42:58;24.95;;;18.92;;
40453;SDS011;26160;51.858;4.398;2023-09-18T04:45:24;20.58;;;14.85;;
40453;SDS011;26160;51.858;4.398;2023-09-18T04:47:51;16.85;;;15.15;;
40453;SDS011;26160;51.858;4.398;2023-09-18T04:50:18;26.60;;;18.23;;
40453;SDS011;26160;51.858;4.398;2023-09-18T04:52:44;22.02;;;17.40;;
40453;SDS011;26160;51.858;4.398;2023-09-18T04:55:10;22.25;;;16.90;;
40453;SDS011;26160;51.858;4.398;2023-09-18T04:57:38;23.20;;;17.08;;
40453;SDS011;26160;51.858;4.398;2023-09-18T05:00:05;15.23;;;13.18;;
40453;SDS011;26160;51.858;4.398;2023-09-18T05:02:38;17.27;;;13.30;;
40453;SDS011;26160;51.858;4.398;2023-09-18T05:05:04;20.02;;;15.68;;
40453;SDS011;26160;51.858;4.398;2023-09-18T05:07:31;17.13;;;14.20;;
40453;SDS011;26160;51.858;4.398;2023-09-18T05:09:58;17.02;;;12.50;;
40453;SDS011;26160;51.858;4.398;2023-09-18T05:12:24;17.95;;;14.02;;
40453;SDS011;26160;51.858;4.398;2023-09-18T05:14:50;18.85;;;16.10;;
40453;SDS011;26160;51.858;4.398;2023-09-18T05:17:17;19.90;;;14.85;;
40453;SDS011;26160;51.858;4.398;2023-09-18T05:19:43;19.75;;;15.15;;
40453;SDS011;26160;51.858;4.398;2023-09-18T05:22:10;17.48;;;13.30;;
40453;SDS011;26160;51.858;4.398;2023-09-18T05:24:37;17.75;;;14.77;;
40453;SDS011;26160;51.858;4.398;2023-09-18T05:27:04;19.35;;;14.48;;
40453;SDS011;26160;51.858;4.398;2023-09-18T05:29:33;21.60;;;16.08;;
40453;SDS011;26160;51.858;4.398;2023-09-18T05:32:01;22.40;;;17.10;;
40453;SDS011;26160;51.858;4.398;2023-09-18T05:34:27;24.25;;;17.30;;
40453;SDS011;26160;51.858;4.398;2023-09-18T05:36:53;16.70;;;13.25;;
40453;SDS011;26160;51.858;4.398;2023-09-18T05:39:20;20.27;;;14.95;;
40453;SDS011;26160;51.858;4.398;2023-09-18T05:41:46;27.30;;;17.63;;
40453;SDS011;26160;51.858;4.398;2023-09-18T05:44:12;17.40;;;14.52;;
40453;SDS011;26160;51.858;4.398;2023-09-18T05:46:38;14.45;;;12.18;;
40453;SDS011;26160;51.858;4.398;2023-09-18T05:49:04;14.30;;;11.32;;
40453;SDS011;26160;51.858;4.398;2023-09-18T05:51:30;19.65;;;13.15;;
40453;SDS011;26160;51.858;4.398;2023-09-18T05:53:58;21.92;;;15.32;;
40453;SDS011;26160;51.858;4.398;2023-09-18T05:56:24;24.70;;;14.75;;
40453;SDS011;26160;51.858;4.398;2023-09-18T05:58:50;14.60;;;10.85;;
40453;SDS011;26160;51.858;4.398;2023-09-18T06:01:16;17.52;;;12.20;;
40453;SDS011;26160;51.858;4.398;2023-09-18T06:03:43;13.77;;;10.23;;
40453;SDS011;26160;51.858;4.398;2023-09-18T06:06:09;17.38;;;12.70;;
40453;SDS011;26160;51.858;4.398;2023-09-18T06:08:35;12.77;;;10.00;;
40453;SDS011;26160;51.858;4.398;2023-09-18T06:11:01;19.83;;;12.00;;
40453;SDS011;26160;51.858;4.398;2023-09-18T06:13:27;19.30;;;12.13;;
40453;SDS011;26160;51.858;4.398;2023-09-18T06:15:53;15.55;;;11.68;;
40453;SDS011;26160;51.858;4.398;2023-09-18T06:18:22;15.95;;;12.43;;
40453;SDS011;26160;51.858;4.398;2023-09-18T06:20:49;20.42;;;12.77;;
40453;SDS011;26160;51.858;4.398;2023-09-18T06:23:15;11.13;;;9.50;;
40453;SDS011;26160;51.858;4.398;2023-09-18T06:25:43;18.95;;;13.02;;
40453;SDS011;26160;51.858;4.398;2023-09-18T06:28:09;14.60;;;10.40;;
40453;SDS011;26160;51.858;4.398;2023-09-18T06:30:36;14.02;;;12.05;;
40453;SDS011;26160;51.858;4.398;2023-09-18T06:33:02;12.93;;;9.15;;
40453;SDS011;26160;51.858;4.398;2023-09-18T06:35:29;12.50;;;9.25;;
40453;SDS011;26160;51.858;4.398;2023-09-18T06:37:55;11.45;;;8.82;;
40453;SDS011;26160;51.858;4.398;2023-09-18T06:40:24;20.15;;;11.07;;
40453;SDS011;26160;51.858;4.398;2023-09-18T06:42:51;12.05;;;9.13;;
40453;SDS011;26160;51.858;4.398;2023-09-18T06:45:20;12.25;;;8.13;;
40453;SDS011;26160;51.858;4.398;2023-09-18T06:47:46;12.18;;;7.03;;
40453;SDS011;26160;51.858;4.398;2023-09-18T06:50:12;11.52;;;7.60;;
40453;SDS011;26160;51.858;4.398;2023-09-18T06:52:38;11.60;;;6.95;;
40453;SDS011;26160;51.858;4.398;2023-09-18T06:55:04;8.57;;;5.80;;
40453;SDS011;26160;51.858;4.398;2023-09-18T06:57:30;9.23;;;6.28;;
40453;SDS011;26160;51.858;4.398;2023-09-18T06:59:57;8.02;;;5.80;;
40453;SDS011;26160;51.858;4.398;2023-09-18T07:02:23;11.20;;;5.43;;
40453;SDS011;26160;51.858;4.398;2023-09-18T07:04:49;9.07;;;5.78;;
40453;SDS011;26160;51.858;4.398;2023-09-18T07:07:15;9.20;;;5.40;;
40453;SDS011;26160;51.858;4.398;2023-09-18T07:09:41;9.15;;;5.25;;
40453;SDS011;26160;51.858;4.398;2023-09-18T07:12:08;6.22;;;5.13;;
40453;SDS011;26160;51.858;4.398;2023-09-18T07:14:37;10.32;;;5.38;;
40453;SDS011;26160;51.858;4.398;2023-09-18T07:17:03;10.60;;;5.07;;
40453;SDS011;26160;51.858;4.398;2023-09-18T07:19:30;10.75;;;5.50;;
40453;SDS011;26160;51.858;4.398;2023-09-18T07:21:56;7.97;;;5.25;;
40453;SDS011;26160;51.858;4.398;2023-09-18T07:24:22;9.63;;;5.03;;
40453;SDS011;26160;51.858;4.398;2023-09-18T07:26:48;11.38;;;5.68;;
40453;SDS011;26160;51.858;4.398;2023-09-18T07:29:14;8.45;;;5.18;;
40453;SDS011;26160;51.858;4.398;2023-09-18T07:31:41;8.48;;;5.53;;
40453;SDS011;26160;51.858;4.398;2023-09-18T07:34:08;8.63;;;5.43;;
40453;SDS011;26160;51.858;4.398;2023-09-18T07:36:35;10.20;;;6.47;;
40453;SDS011;26160;51.858;4.398;2023-09-18T07:39:02;11.95;;;6.65;;
40453;SDS011;26160;51.858;4.398;2023-09-18T07:41:30;10.95;;;6.45;;
40453;SDS011;26160;51.858;4.398;2023-09-18T07:43:56;10.85;;;7.38;;
40453;SDS011;26160;51.858;4.398;2023-09-18T07:46:24;8.07;;;6.80;;
40453;SDS011;26160;51.858;4.398;2023-09-18T07:48:51;9.52;;;7.32;;
40453;SDS011;26160;51.858;4.398;2023-09-18T07:51:17;12.55;;;7.28;;
40453;SDS011;26160;51.858;4.398;2023-09-18T07:53:43;10.63;;;7.47;;
40453;SDS011;26160;51.858;4.398;2023-09-18T07:56:09;12.75;;;7.45;;
40453;SDS011;26160;51.858;4.398;2023-09-18T07:58:35;9.82;;;7.35;;
40453;SDS011;26160;51.858;4.398;2023-09-18T08:01:07;12.70;;;8.25;;
40453;SDS011;26160;51.858;4.398;2023-09-18T08:03:35;14.40;;;9.03;;
40453;SDS011;26160;51.858;4.398;2023-09-18T08:06:01;10.85;;;7.85;;
40453;SDS011;26160;51.858;4.398;2023-09-18T08:08:30;10.98;;;8.07;;
40453;SDS011;26160;51.858;4.398;2023-09-18T08:10:58;10.32;;;8.27;;
40453;SDS011;26160;51.858;4.398;2023-09-18T08:13:27;10.13;;;7.93;;
40453;SDS011;26160;51.858;4.398;2023-09-18T08:15:56;12.90;;;8.77;;
40453;SDS011;26160;51.858;4.398;2023-09-18T08:18:22;12.13;;;8.18;;
40453;SDS011;26160;51.858;4.398;2023-09-18T08:20:52;10.57;;;7.80;;
40453;SDS011;26160;51.858;4.398;2023-09-18T08:23:19;11.38;;;7.15;;
40453;SDS011;26160;51.858;4.398;2023-09-18T08:25:46;11.57;;;8.05;;
40453;SDS011;26160;51.858;4.398;2023-09-18T08:28:12;11.20;;;7.43;;
40453;SDS011;26160;51.858;4.398;2023-09-18T08:30:40;9.95;;;6.43;;
40453;SDS011;26160;51.858;4.398;2023-09-18T08:33:10;11.30;;;6.85;;
40453;SDS011;26160;51.858;4.398;2023-09-18T08:35:37;10.20;;;6.55;;
40453;SDS011;26160;51.858;4.398;2023-09-18T08:38:03;8.38;;;6.63;;
40453;SDS011;26160;51.858;4.398;2023-09-18T08:40:29;8.52;;;6.05;;
40453;SDS011;26160;51.858;4.398;2023-09-18T08:42:56;12.32;;;6.18;;
40453;SDS011;26160;51.858;4.398;2023-09-18T08:45:27;9.73;;;6.15;;
40453;SDS011;26160;51.858;4.398;2023-09-18T08:48:15;8.27;;;6.75;;
40453;SDS011;26160;51.858;4.398;2023-09-18T08:50:42;7.53;;;4.60;;
40453;SDS011;26160;51.858;4.398;2023-09-18T08:53:10;10.10;;;4.63;;
40453;SDS011;26160;51.858;4.398;2023-09-18T08:55:37;4.68;;;3.40;;
40453;SDS011;26160;51.858;4.398;2023-09-18T08:58:03;4.60;;;3.33;;
40453;SDS011;26160;51.858;4.398;2023-09-18T09:00:31;5.35;;;3.42;;
40453;SDS011;26160;51.858;4.398;2023-09-18T09:03:01;5.32;;;4.07;;
40453;SDS011;26160;51.858;4.398;2023-09-18T09:05:28;5.82;;;3.90;;
40453;SDS011;26160;51.858;4.398;2023-09-18T09:07:54;4.43;;;4.03;;
40453;SDS011;26160;51.858;4.398;2023-09-18T09:10:20;5.13;;;4.40;;
40453;SDS011;26160;51.858;4.398;2023-09-18T09:12:51;6.03;;;4.70;;
40453;SDS011;26160;51.858;4.398;2023-09-18T09:15:29;7.32;;;4.63;;
40453;SDS011;26160;51.858;4.398;2023-09-18T09:18:04;7.85;;;5.03;;
40453;SDS011;26160;51.858;4.398;2023-09-18T09:20:32;6.80;;;5.10;;
40453;SDS011;26160;51.858;4.398;2023-09-18T09:23:02;6.18;;;4.68;;
40453;SDS011;26160;51.858;4.398;2023-09-18T09:25:30;6.45;;;4.55;;
40453;SDS011;26160;51.858;4.398;2023-09-18T09:28:04;8.38;;;5.45;;
40453;SDS011;26160;51.858;4.398;2023-09-18T09:30:32;9.90;;;5.32;;
40453;SDS011;26160;51.858;4.398;2023-09-18T09:33:02;7.60;;;5.00;;
40453;SDS011;26160;51.858;4.398;2023-09-18T09:35:33;6.38;;;5.82;;
40453;SDS011;26160;51.858;4.398;2023-09-18T09:40:32;7.53;;;5.75;;
40453;SDS011;26160;51.858;4.398;2023-09-18T09:43:00;7.72;;;5.63;;
40453;SDS011;26160;51.858;4.398;2023-09-18T09:45:30;9.35;;;4.60;;
40453;SDS011;26160;51.858;4.398;2023-09-18T09:48:04;6.57;;;4.50;;
40453;SDS011;26160;51.858;4.398;2023-09-18T09:50:32;5.05;;;4.13;;
40453;SDS011;26160;51.858;4.398;2023-09-18T09:52:59;10.60;;;4.00;;
40453;SDS011;26160;51.858;4.398;2023-09-18T09:55:29;9.43;;;3.65;;
40453;SDS011;26160;51.858;4.398;2023-09-18T09:58:00;4.80;;;3.53;;
40453;SDS011;26160;51.858;4.398;2023-09-18T10:00:39;6.80;;;3.78;;
40453;SDS011;26160;51.858;4.398;2023-09-18T10:03:12;4.18;;;3.05;;
40453;SDS011;26160;51.858;4.398;2023-09-18T10:05:41;4.75;;;3.90;;
40453;SDS011;26160;51.858;4.398;2023-09-18T10:10:51;6.20;;;3.60;;
40453;SDS011;26160;51.858;4.398;2023-09-18T10:15:48;5.28;;;4.03;;
40453;SDS011;26160;51.858;4.398;2023-09-18T10:18:17;4.63;;;2.90;;
40453;SDS011;26160;51.858;4.398;2023-09-18T10:20:44;5.30;;;3.47;;
40453;SDS011;26160;51.858;4.398;2023-09-18T10:23:29;7.75;;;3.42;;
40453;SDS011;26160;51.858;4.398;2023-09-18T10:26:04;4.35;;;3.13;;
40453;SDS011;26160;51.858;4.398;2023-09-18T10:28:33;7.38;;;3.28;;
40453;SDS011;26160;51.858;4.398;2023-09-18T10:30:59;4.55;;;2.75;;
40453;SDS011;26160;51.858;4.398;2023-09-18T10:33:26;6.15;;;3.33;;
40453;SDS011;26160;51.858;4.398;2023-09-18T10:35:54;4.40;;;2.80;;
40453;SDS011;26160;51.858;4.398;2023-09-18T10:38:22;3.63;;;3.05;;
40453;SDS011;26160;51.858;4.398;2023-09-18T10:40:50;4.55;;;2.88;;
40453;SDS011;26160;51.858;4.398;2023-09-18T10:43:18;4.82;;;2.90;;
40453;SDS011;26160;51.858;4.398;2023-09-18T10:45:44;9.52;;;2.88;;
40453;SDS011;26160;51.858;4.398;2023-09-18T10:48:11;5.60;;;2.92;;
40453;SDS011;26160;51.858;4.398;2023-09-18T10:50:39;6.68;;;3.20;;
40453;SDS011;26160;51.858;4.398;2023-09-18T10:53:07;5.13;;;3.00;;
40453;SDS011;26160;51.858;4.398;2023-09-18T10:55:33;2.78;;;2.33;;
40453;SDS011;26160;51.858;4.398;2023-09-18T10:58:01;3.47;;;2.40;;
40453;SDS011;26160;51.858;4.398;2023-09-18T11:00:29;4.03;;;3.20;;
40453;SDS011;26160;51.858;4.398;2023-09-18T11:03:15;4.90;;;3.40;;
40453;SDS011;26160;51.858;4.398;2023-09-18T11:05:46;7.78;;;3.80;;
40453;SDS011;26160;51.858;4.398;2023-09-18T11:08:25;8.35;;;4.80;;
40453;SDS011;26160;51.858;4.398;2023-09-18T11:11:01;8.13;;;4.55;;
40453;SDS011;26160;51.858;4.398;2023-09-18T11:13:40;6.78;;;4.68;;
40453;SDS011;26160;51.858;4.398;2023-09-18T11:19:16;7.20;;;4.93;;
40453;SDS011;26160;51.858;4.398;2023-09-18T11:21:43;6.07;;;4.85;;
40453;SDS011;26160;51.858;4.398;2023-09-18T11:24:18;6.40;;;4.70;;
40453;SDS011;26160;51.858;4.398;2023-09-18T11:26:47;8.48;;;5.43;;
40453;SDS011;26160;51.858;4.398;2023-09-18T11:29:16;9.48;;;4.38;;
40453;SDS011;26160;51.858;4.398;2023-09-18T11:31:51;5.82;;;4.15;;
40453;SDS011;26160;51.858;4.398;2023-09-18T11:36:49;3.70;;;3.30;;
40453;SDS011;26160;51.858;4.398;2023-09-18T11:42:08;5.38;;;3.70;;
40453;SDS011;26160;51.858;4.398;2023-09-18T11:44:35;8.48;;;4.00;;
40453;SDS011;26160;51.858;4.398;2023-09-18T11:47:15;5.13;;;4.07;;
40453;SDS011;26160;51.858;4.398;2023-09-18T11:49:47;4.55;;;3.75;;
40453;SDS011;26160;51.858;4.398;2023-09-18T11:52:22;8.85;;;3.97;;
40453;SDS011;26160;51.858;4.398;2023-09-18T11:54:53;8.35;;;3.42;;
40453;SDS011;26160;51.858;4.398;2023-09-18T11:57:21;10.15;;;3.63;;
40453;SDS011;26160;51.858;4.398;2023-09-18T11:59:47;7.20;;;3.38;;
40453;SDS011;26160;51.858;4.398;2023-09-18T12:04:53;5.88;;;3.45;;
40453;SDS011;26160;51.858;4.398;2023-09-18T12:07:20;10.60;;;3.70;;
40453;SDS011;26160;51.858;4.398;2023-09-18T12:09:46;9.07;;;3.97;;
40453;SDS011;26160;51.858;4.398;2023-09-18T12:12:12;8.80;;;3.53;;
40453;SDS011;26160;51.858;4.398;2023-09-18T12:14:41;7.43;;;3.83;;
40453;SDS011;26160;51.858;4.398;2023-09-18T12:17:08;5.68;;;3.25;;
40453;SDS011;26160;51.858;4.398;2023-09-18T12:19:34;6.65;;;3.47;;
40453;SDS011;26160;51.858;4.398;2023-09-18T12:22:01;6.60;;;3.40;;
40453;SDS011;26160;51.858;4.398;2023-09-18T12:24:27;8.60;;;3.90;;
40453;SDS011;26160;51.858;4.398;2023-09-18T12:26:54;9.25;;;3.83;;
40453;SDS011;26160;51.858;4.398;2023-09-18T12:29:20;6.60;;;3.47;;
40453;SDS011;26160;51.858;4.398;2023-09-18T12:31:47;9.55;;;2.95;;
40453;SDS011;26160;51.858;4.398;2023-09-18T12:34:18;7.95;;;3.25;;
40453;SDS011;26160;51.858;4.398;2023-09-18T12:36:49;5.70;;;3.45;;
40453;SDS011;26160;51.858;4.398;2023-09-18T12:39:16;5.93;;;3.30;;
40453;SDS011;26160;51.858;4.398;2023-09-18T12:41:46;5.05;;;2.75;;
40453;SDS011;26160;51.858;4.398;2023-09-18T12:44:13;7.68;;;3.55;;
40453;SDS011;26160;51.858;4.398;2023-09-18T12:46:41;5.53;;;2.65;;
40453;SDS011;26160;51.858;4.398;2023-09-18T12:49:21;4.15;;;2.80;;
40453;SDS011;26160;51.858;4.398;2023-09-18T12:51:56;5.82;;;2.78;;
40453;SDS011;26160;51.858;4.398;2023-09-18T12:54:39;8.60;;;2.40;;
40453;SDS011;26160;51.858;4.398;2023-09-18T12:57:07;3.50;;;2.67;;
40453;SDS011;26160;51.858;4.398;2023-09-18T12:59:35;5.95;;;2.67;;
40453;SDS011;26160;51.858;4.398;2023-09-18T13:02:03;5.35;;;2.80;;
40453;SDS011;26160;51.858;4.398;2023-09-18T13:04:31;5.10;;;2.55;;
40453;SDS011;26160;51.858;4.398;2023-09-18T13:07:02;6.32;;;2.72;;
40453;SDS011;26160;51.858;4.398;2023-09-18T13:09:39;6.65;;;3.13;;
40453;SDS011;26160;51.858;4.398;2023-09-18T13:12:06;7.05;;;2.35;;
40453;SDS011;26160;51.858;4.398;2023-09-18T13:17:39;5.78;;;2.33;;
40453;SDS011;26160;51.858;4.398;2023-09-18T13:20:14;4.75;;;2.15;;
40453;SDS011;26160;51.858;4.398;2023-09-18T13:22:42;8.07;;;2.58;;
40453;SDS011;26160;51.858;4.398;2023-09-18T13:25:18;5.47;;;2.53;;
40453;SDS011;26160;51.858;4.398;2023-09-18T13:27:53;4.05;;;2.40;;
40453;SDS011;26160;51.858;4.398;2023-09-18T13:30:20;5.13;;;2.10;;
40453;SDS011;26160;51.858;4.398;2023-09-18T13:32:48;4.28;;;2.50;;
40453;SDS011;26160;51.858;4.398;2023-09-18T13:35:15;3.22;;;1.95;;
40453;SDS011;26160;51.858;4.398;2023-09-18T13:37:42;5.75;;;2.45;;
40453;SDS011;26160;51.858;4.398;2023-09-18T13:40:09;3.45;;;2.38;;
40453;SDS011;26160;51.858;4.398;2023-09-18T13:42:37;3.75;;;2.30;;
40453;SDS011;26160;51.858;4.398;2023-09-18T13:45:04;2.83;;;1.70;;
40453;SDS011;26160;51.858;4.398;2023-09-18T13:47:32;7.03;;;2.20;;
40453;SDS011;26160;51.858;4.398;2023-09-18T13:49:59;3.20;;;2.10;;
40453;SDS011;26160;51.858;4.398;2023-09-18T13:52:27;5.10;;;2.10;;
40453;SDS011;26160;51.858;4.398;2023-09-18T13:54:53;7.10;;;2.13;;
40453;SDS011;26160;51.858;4.398;2023-09-18T13:57:19;5.38;;;2.28;;
40453;SDS011;26160;51.858;4.398;2023-09-18T13:59:46;6.15;;;2.05;;
40453;SDS011;26160;51.858;4.398;2023-09-18T14:02:14;6.88;;;2.15;;
40453;SDS011;26160;51.858;4.398;2023-09-18T14:04:40;4.55;;;2.35;;
40453;SDS011;26160;51.858;4.398;2023-09-18T14:07:07;7.72;;;2.45;;
40453;SDS011;26160;51.858;4.398;2023-09-18T14:09:34;7.10;;;3.10;;
40453;SDS011;26160;51.858;4.398;2023-09-18T14:12:01;12.35;;;4.18;;
40453;SDS011;26160;51.858;4.398;2023-09-18T14:14:28;9.05;;;4.57;;
40453;SDS011;26160;51.858;4.398;2023-09-18T14:16:54;6.35;;;3.35;;
40453;SDS011;26160;51.858;4.398;2023-09-18T14:19:21;7.50;;;3.83;;
40453;SDS011;26160;51.858;4.398;2023-09-18T14:21:47;11.95;;;3.70;;
40453;SDS011;26160;51.858;4.398;2023-09-18T14:24:15;11.68;;;4.70;;
40453;SDS011;26160;51.858;4.398;2023-09-18T14:26:44;11.23;;;3.28;;
40453;SDS011;26160;51.858;4.398;2023-09-18T14:29:10;7.03;;;1.73;;
40453;SDS011;26160;51.858;4.398;2023-09-18T14:31:37;6.68;;;1.60;;
40453;SDS011;26160;51.858;4.398;2023-09-18T14:34:03;5.43;;;1.60;;
40453;SDS011;26160;51.858;4.398;2023-09-18T14:36:32;4.70;;;1.70;;
40453;SDS011;26160;51.858;4.398;2023-09-18T14:38:59;5.40;;;1.30;;
40453;SDS011;26160;51.858;4.398;2023-09-18T14:41:26;8.18;;;2.08;;
40453;SDS011;26160;51.858;4.398;2023-09-18T14:43:53;4.75;;;1.67;;
40453;SDS011;26160;51.858;4.398;2023-09-18T14:46:19;6.25;;;1.70;;
40453;SDS011;26160;51.858;4.398;2023-09-18T14:48:45;8.45;;;1.77;;
40453;SDS011;26160;51.858;4.398;2023-09-18T14:51:12;10.63;;;2.08;;
40453;SDS011;26160;51.858;4.398;2023-09-18T14:53:38;12.70;;;2.65;;
40453;SDS011;26160;51.858;4.398;2023-09-18T14:56:04;10.75;;;2.38;;
40453;SDS011;26160;51.858;4.398;2023-09-18T14:58:30;10.00;;;2.47;;
40453;SDS011;26160;51.858;4.398;2023-09-18T15:00:56;14.27;;;2.70;;
40453;SDS011;26160;51.858;4.398;2023-09-18T15:03:23;10.30;;;2.47;;